フォール=ド=フランス の空港の天気 - METARとTAF

マルティニーク・エメ・セゼール国際空港 ( TFFF / FDF ) - マルティニーク フォール=ド=フランス
飛行場実況気象(Metar)
観測時間11/30 15:00 AST (11/30 19:00 UTC)
風向・風速東 7m/s
視程10km以上
天気現象
全天の4割程度の雲 雲底高度 700m
全天の4割程度の雲 雲底高度 850m
気温30℃
湿度70%
気圧1012hPa
METARTFFF 301900Z AUTO 10014KT 9999 SCT023 SCT028 30/24 Q1012 TEMPO 4000 SHRA SCT018TCU
過去の天気等 Google飛行場航空写真 Wunderground天気予報

過去48時間のMETAR

飛行場予報(TAF)
発表時間: 11/30 13:00 AST (11/30 17:00 UTC)
予報対象時間: 30日14時 AST ~ 1日14時 AST
風向・風速東 6m/s
視程10km以上
全天の4割程度の雲 雲底高度 760m
30日14時 AST ~ 30日24時 AST に 確率 30% で一時的に
視程4000m
天気現象しゅう雨
全天の4割程度の塔状積雲 雲底高度 550m
TAF TFFF 301700Z 3018/0118 09012KT 9999 SCT025
PROB30 TEMPO 3018/0104 4000 SHRA SCT018TCU